NORTHEAST SUFFOLK  -  Winter Weather Advisory Winter Weather Advisory        NORTHERN NASSAU  -  Winter Weather Advisory Winter Weather Advisory        NORTHWEST SUFFOLK  -  Winter Weather Advisory Winter Weather Advisory        SOUTHEAST SUFFOLK  -  Winter Weather Advisory Winter Weather Advisory        SOUTHERN NASSAU  -  Winter Weather Advisory Winter Weather Advisory        SOUTHWEST SUFFOLK  -  Winter Weather Advisory Winter Weather Advisory      

Active alerts

Northern Nassau
  Details for Northern Nassau Winter Weather Advisory
Southern Nassau
  Details for Southern Nassau Winter Weather Advisory
Northwest Suffolk
  Details for Northwest Suffolk Winter Weather Advisory
Southwest Suffolk
  Details for Southwest Suffolk Winter Weather Advisory
Northeast Suffolk
  Details for Northeast Suffolk Winter Weather Advisory
Southeast Suffolk
  Details for Southeast Suffolk Winter Weather Advisory


WXM80 ListenWXM80 Stop

You find our weather info also at:

UK Metoffice

WeatherCloud

Weather Underground

Northeastern Weather Network

AWEKAS

Citizen Weather Observer Program (CWOP)

HAMweather, WeatherForYou, PWS Weather


Weather Underground History page Text

Daily Summary for November 21, 2017 Units:  Both    English   Metric
« Previous Day
Next Day »
Daily Weekly Monthly Yearly Custom
  High: Low: Average:
Temperature: 58.4 °F /  14.7 °C 40.2 °F /  4.6 °C 49.2 °F /  9.6 °C
Dew Point: 45.2 °F /  7.3 °C 28.4 °F /  -2 °C 38.3 °F /  3.5 °C
Humidity: 76 % 45 % 67 %
Wind Speed: 10.0 mph /  16.1 km/h - 3.2 mph /  5.1 km/h
Wind Gust: 20.0 mph /  32.2 km/h - -
Wind:- - SW
Pressure: 30.18 in /  1021.9 hPa 29.81 in /  1009.4 hPa -
Precipitation: 0.00 in /  0 mm    
Historical Graphs
 
 
Tabular Data for November 21, 2017
Time Temperature Dew Point Pressure Wind Wind Speed Wind Gust Humidity Rainfall Rate (Hourly)
00:04 41.7 °F /  5.4 °C 28.4 °F /  -2 °C 30.15 in /  1020.9 hPa SSW 4.0 mph /  6.4 km/h 5.8 mph /  9.3 km/h 59 % 0.00 in /  0 mm
00:09 41.6 °F /  5.3 °C 28.7 °F /  -1.8 °C 30.15 in /  1020.9 hPa WSW 1.1 mph /  1.8 km/h 4.6 mph /  7.4 km/h 60 % 0.00 in /  0 mm
00:14 41.5 °F /  5.3 °C 29.0 °F /  -1.7 °C 30.15 in /  1020.9 hPa SW 2.3 mph /  3.7 km/h 3.5 mph /  5.6 km/h 61 % 0.00 in /  0 mm
00:24 41.4 °F /  5.2 °C 28.9 °F /  -1.7 °C 30.15 in /  1020.9 hPa South 2.5 mph /  4 km/h 5.8 mph /  9.3 km/h 61 % 0.00 in /  0 mm
00:29 41.3 °F /  5.2 °C 29.3 °F /  -1.5 °C 30.15 in /  1020.9 hPa SW 1.9 mph /  3.1 km/h 5.0 mph /  8 km/h 62 % 0.00 in /  0 mm
00:39 41.1 °F /  5.1 °C 29.5 °F /  -1.4 °C 30.15 in /  1020.9 hPa WSW 1.2 mph /  1.9 km/h 3.5 mph /  5.6 km/h 63 % 0.00 in /  0 mm
00:44 41.0 °F /  5 °C 29.4 °F /  -1.4 °C 30.15 in /  1020.9 hPa SW 2.3 mph /  3.7 km/h 3.5 mph /  5.6 km/h 63 % 0.00 in /  0 mm
00:49 40.9 °F /  4.9 °C 29.3 °F /  -1.5 °C 30.15 in /  1020.9 hPa SW 2.9 mph /  4.7 km/h 6.9 mph /  11.1 km/h 63 % 0.00 in /  0 mm
00:54 40.8 °F /  4.9 °C 29.6 °F /  -1.3 °C 30.15 in /  1020.9 hPa SW 0.3 mph /  0.5 km/h 1.2 mph /  1.9 km/h 64 % 0.00 in /  0 mm
01:09 40.6 °F /  4.8 °C 29.7 °F /  -1.3 °C 30.15 in /  1020.9 hPa West 3.6 mph /  5.8 km/h 6.0 mph /  9.7 km/h 65 % 0.00 in /  0 mm
01:14 40.6 °F /  4.8 °C 29.4 °F /  -1.4 °C 30.15 in /  1020.9 hPa West 5.2 mph /  8.4 km/h 10.0 mph /  16.1 km/h 64 % 0.00 in /  0 mm
01:30 40.5 °F /  4.7 °C 29.3 °F /  -1.5 °C 30.15 in /  1020.9 hPa SSW 2.5 mph /  4 km/h 4.6 mph /  7.4 km/h 64 % 0.00 in /  0 mm
01:35 40.5 °F /  4.7 °C 29.3 °F /  -1.5 °C 30.15 in /  1020.9 hPa SW 5.8 mph /  9.3 km/h 9.2 mph /  14.8 km/h 64 % 0.00 in /  0 mm
01:45 40.6 °F /  4.8 °C 29.0 °F /  -1.7 °C 30.15 in /  1020.9 hPa WSW 3.8 mph /  6.1 km/h 10.4 mph /  16.7 km/h 63 % 0.00 in /  0 mm
01:50 40.7 °F /  4.8 °C 29.1 °F /  -1.6 °C 30.15 in /  1020.9 hPa SW 4.8 mph /  7.7 km/h 8.1 mph /  13 km/h 63 % 0.00 in /  0 mm
02:00 40.9 °F /  4.9 °C 29.3 °F /  -1.5 °C 30.15 in /  1020.9 hPa SW 3.5 mph /  5.6 km/h 5.0 mph /  8 km/h 63 % 0.00 in /  0 mm
02:10 41.0 °F /  5 °C 29.4 °F /  -1.4 °C 29.91 in /  1012.8 hPa SW 1.6 mph /  2.6 km/h 3.5 mph /  5.6 km/h 63 % 0.00 in /  0 mm
02:15 41.0 °F /  5 °C 29.4 °F /  -1.4 °C 30.15 in /  1020.9 hPa WSW 0.6 mph /  1 km/h 3.5 mph /  5.6 km/h 63 % 0.00 in /  0 mm
02:25 41.0 °F /  5 °C 29.7 °F /  -1.3 °C 30.15 in /  1020.9 hPa SW 2.0 mph /  3.2 km/h 3.5 mph /  5.6 km/h 64 % 0.00 in /  0 mm
02:30 40.9 °F /  4.9 °C 29.7 °F /  -1.3 °C 30.16 in /  1021.2 hPa SSW 3.0 mph /  4.8 km/h 6.9 mph /  11.1 km/h 64 % 0.00 in /  0 mm
02:33 40.9 °F /  4.9 °C 29.7 °F /  -1.3 °C 30.16 in /  1021.2 hPa WSW 1.5 mph /  2.4 km/h 5.8 mph /  9.3 km/h 64 % 0.00 in /  0 mm
02:43 40.9 °F /  4.9 °C 30.0 °F /  -1.1 °C 30.15 in /  1020.9 hPa WSW 0.4 mph /  0.6 km/h 3.5 mph /  5.6 km/h 65 % 0.00 in /  0 mm
02:48 40.8 °F /  4.9 °C 29.9 °F /  -1.2 °C 30.15 in /  1020.9 hPa SW 2.7 mph /  4.3 km/h 6.0 mph /  9.7 km/h 65 % 0.00 in /  0 mm
02:53 40.8 °F /  4.9 °C 29.9 °F /  -1.2 °C 30.15 in /  1020.9 hPa SW 1.5 mph /  2.4 km/h 4.0 mph /  6.4 km/h 65 % 0.00 in /  0 mm
02:58 40.7 °F /  4.8 °C 29.8 °F /  -1.2 °C 30.15 in /  1020.9 hPa SW 0.9 mph /  1.4 km/h 3.5 mph /  5.6 km/h 65 % 0.00 in /  0 mm
03:03 40.7 °F /  4.8 °C 29.8 °F /  -1.2 °C 30.15 in /  1020.9 hPa SW 0.7 mph /  1.1 km/h 2.3 mph /  3.7 km/h 65 % 0.00 in /  0 mm
03:18 40.4 °F /  4.7 °C 30.3 °F /  -0.9 °C 30.15 in /  1020.9 hPa SW 3.0 mph /  4.8 km/h 4.6 mph /  7.4 km/h 67 % 0.00 in /  0 mm
03:28 40.3 °F /  4.6 °C 30.6 °F /  -0.8 °C 30.15 in /  1020.9 hPa SSW 2.0 mph /  3.2 km/h 4.6 mph /  7.4 km/h 68 % 0.00 in /  0 mm
03:33 40.3 °F /  4.6 °C 30.6 °F /  -0.8 °C 30.16 in /  1021.2 hPa SW 1.2 mph /  1.9 km/h 3.5 mph /  5.6 km/h 68 % 0.00 in /  0 mm
03:38 40.2 °F /  4.6 °C 30.8 °F /  -0.7 °C 29.91 in /  1012.8 hPa SSW 4.1 mph /  6.6 km/h 6.0 mph /  9.7 km/h 69 % 0.00 in /  0 mm
03:43 40.2 °F /  4.6 °C 30.8 °F /  -0.7 °C 30.15 in /  1020.9 hPa SW 2.5 mph /  4 km/h 4.0 mph /  6.4 km/h 69 % 0.00 in /  0 mm
03:48 40.2 °F /  4.6 °C 30.8 °F /  -0.7 °C 30.16 in /  1021.2 hPa WSW 1.5 mph /  2.4 km/h 4.6 mph /  7.4 km/h 69 % 0.00 in /  0 mm
03:53 40.2 °F /  4.6 °C 30.8 °F /  -0.7 °C 30.15 in /  1020.9 hPa WSW 3.0 mph /  4.8 km/h 5.0 mph /  8 km/h 69 % 0.00 in /  0 mm
04:03 40.4 °F /  4.7 °C 31.4 °F /  -0.3 °C 30.15 in /  1020.9 hPa WSW 3.9 mph /  6.3 km/h 5.0 mph /  8 km/h 70 % 0.00 in /  0 mm
04:08 40.5 °F /  4.7 °C 31.5 °F /  -0.3 °C 30.15 in /  1020.9 hPa SW 5.9 mph /  9.5 km/h 6.0 mph /  9.7 km/h 70 % 0.00 in /  0 mm
04:18 40.8 °F /  4.9 °C 31.8 °F /  -0.1 °C 30.15 in /  1020.9 hPa SW 3.3 mph /  5.3 km/h 5.8 mph /  9.3 km/h 70 % 0.00 in /  0 mm
04:19 40.8 °F /  4.9 °C 31.8 °F /  -0.1 °C 30.15 in /  1020.9 hPa WSW 3.2 mph /  5.1 km/h 5.8 mph /  9.3 km/h 70 % 0.00 in /  0 mm
04:28 41.0 °F /  5 °C 32.3 °F /  0.2 °C 30.15 in /  1020.9 hPa SW 3.8 mph /  6.1 km/h 6.0 mph /  9.7 km/h 71 % 0.00 in /  0 mm
04:38 41.3 °F /  5.2 °C 32.6 °F /  0.3 °C 30.15 in /  1020.9 hPa SW 1.9 mph /  3.1 km/h 5.8 mph /  9.3 km/h 71 % 0.00 in /  0 mm
04:43 41.3 °F /  5.2 °C 32.6 °F /  0.3 °C 30.15 in /  1020.9 hPa WSW 2.9 mph /  4.7 km/h 6.9 mph /  11.1 km/h 71 % 0.00 in /  0 mm
04:58 41.4 °F /  5.2 °C 32.7 °F /  0.4 °C 29.90 in /  1012.4 hPa WSW 0.8 mph /  1.3 km/h 3.5 mph /  5.6 km/h 71 % 0.00 in /  0 mm
05:03 41.5 °F /  5.3 °C 32.8 °F /  0.4 °C 30.15 in /  1020.9 hPa SSW 2.6 mph /  4.2 km/h 4.0 mph /  6.4 km/h 71 % 0.00 in /  0 mm
05:08 41.4 °F /  5.2 °C 32.7 °F /  0.4 °C 30.15 in /  1020.9 hPa West 2.8 mph /  4.5 km/h 3.5 mph /  5.6 km/h 71 % 0.00 in /  0 mm
05:14 41.4 °F /  5.2 °C 33.0 °F /  0.6 °C 30.15 in /  1020.9 hPa SW 0.6 mph /  1 km/h 1.2 mph /  1.9 km/h 72 % 0.00 in /  0 mm
05:19 41.4 °F /  5.2 °C 33.0 °F /  0.6 °C 30.15 in /  1020.9 hPa SW 1.2 mph /  1.9 km/h 1.2 mph /  1.9 km/h 72 % 0.00 in /  0 mm
05:29 41.3 °F /  5.2 °C 33.0 °F /  0.6 °C 30.15 in /  1020.9 hPa SSW 2.7 mph /  4.3 km/h 5.8 mph /  9.3 km/h 72 % 0.00 in /  0 mm
05:34 41.2 °F /  5.1 °C 32.9 °F /  0.5 °C 29.91 in /  1012.8 hPa SW 0.6 mph /  1 km/h 3.5 mph /  5.6 km/h 72 % 0.00 in /  0 mm
05:39 41.1 °F /  5.1 °C 32.8 °F /  0.4 °C 30.15 in /  1020.9 hPa SSW 2.4 mph /  3.9 km/h 3.5 mph /  5.6 km/h 72 % 0.00 in /  0 mm
05:49 41.0 °F /  5 °C 33.0 °F /  0.6 °C 30.15 in /  1020.9 hPa WSW 1.4 mph /  2.3 km/h 3.0 mph /  4.8 km/h 73 % 0.00 in /  0 mm
05:54 40.9 °F /  4.9 °C 32.9 °F /  0.5 °C 29.91 in /  1012.8 hPa WSW 1.0 mph /  1.6 km/h 3.5 mph /  5.6 km/h 73 % 0.00 in /  0 mm
06:04 40.7 °F /  4.8 °C 32.7 °F /  0.4 °C 30.16 in /  1021.2 hPa SW 2.2 mph /  3.5 km/h 3.5 mph /  5.6 km/h 73 % 0.00 in /  0 mm
06:09 40.7 °F /  4.8 °C 32.7 °F /  0.4 °C 30.16 in /  1021.2 hPa SW 2.1 mph /  3.4 km/h 3.5 mph /  5.6 km/h 73 % 0.00 in /  0 mm
06:14 40.6 °F /  4.8 °C 33.0 °F /  0.6 °C 30.16 in /  1021.2 hPa SW 1.4 mph /  2.3 km/h 4.6 mph /  7.4 km/h 74 % 0.00 in /  0 mm
06:34 40.4 °F /  4.7 °C 32.8 °F /  0.4 °C 30.16 in /  1021.2 hPa SSW 2.0 mph /  3.2 km/h 3.5 mph /  5.6 km/h 74 % 0.00 in /  0 mm
06:44 40.5 °F /  4.7 °C 32.9 °F /  0.5 °C 30.16 in /  1021.2 hPa SW 2.4 mph /  3.9 km/h 3.5 mph /  5.6 km/h 74 % 0.00 in /  0 mm
06:49 40.5 °F /  4.7 °C 32.9 °F /  0.5 °C 30.16 in /  1021.2 hPa SW 1.9 mph /  3.1 km/h 4.0 mph /  6.4 km/h 74 % 0.00 in /  0 mm
06:54 40.6 °F /  4.8 °C 33.0 °F /  0.6 °C 30.17 in /  1021.6 hPa WSW 2.1 mph /  3.4 km/h 4.6 mph /  7.4 km/h 74 % 0.00 in /  0 mm
07:04 40.7 °F /  4.8 °C 32.7 °F /  0.4 °C 30.16 in /  1021.2 hPa WSW 0.5 mph /  0.8 km/h 3.5 mph /  5.6 km/h 73 % 0.00 in /  0 mm
07:09 40.7 °F /  4.8 °C 33.1 °F /  0.6 °C 30.16 in /  1021.2 hPa WSW 1.7 mph /  2.7 km/h 3.5 mph /  5.6 km/h 74 % 0.00 in /  0 mm
07:14 40.8 °F /  4.9 °C 33.2 °F /  0.7 °C 30.17 in /  1021.6 hPa SW 1.4 mph /  2.3 km/h 3.5 mph /  5.6 km/h 74 % 0.00 in /  0 mm
07:19 40.9 °F /  4.9 °C 33.2 °F /  0.7 °C 30.17 in /  1021.6 hPa WSW 2.8 mph /  4.5 km/h 5.0 mph /  8 km/h 74 % 0.00 in /  0 mm
07:24 40.9 °F /  4.9 °C 33.2 °F /  0.7 °C 30.17 in /  1021.6 hPa SSW 1.7 mph /  2.7 km/h 4.6 mph /  7.4 km/h 74 % 0.00 in /  0 mm
07:29 41.1 °F /  5.1 °C 33.4 °F /  0.8 °C 30.18 in /  1021.9 hPa WSW 1.0 mph /  1.6 km/h 2.0 mph /  3.2 km/h 74 % 0.00 in /  0 mm
07:34 41.2 °F /  5.1 °C 33.9 °F /  1.1 °C 30.18 in /  1021.9 hPa SSW 1.4 mph /  2.3 km/h 4.0 mph /  6.4 km/h 75 % 0.00 in /  0 mm
07:39 41.3 °F /  5.2 °C 34.0 °F /  1.1 °C 30.18 in /  1021.9 hPa SSW 2.1 mph /  3.4 km/h 5.8 mph /  9.3 km/h 75 % 0.00 in /  0 mm
07:45 41.5 °F /  5.3 °C 34.2 °F /  1.2 °C 30.17 in /  1021.6 hPa SSW 4.7 mph /  7.6 km/h 4.7 mph /  7.6 km/h 75 % 0.00 in /  0 mm
07:55 42.0 °F /  5.6 °C 34.6 °F /  1.4 °C 30.17 in /  1021.6 hPa SW 2.3 mph /  3.7 km/h 5.8 mph /  9.3 km/h 75 % 0.00 in /  0 mm
08:05 42.6 °F /  5.9 °C 35.2 °F /  1.8 °C 30.17 in /  1021.6 hPa SW 1.2 mph /  1.9 km/h 5.8 mph /  9.3 km/h 75 % 0.00 in /  0 mm
08:10 42.9 °F /  6.1 °C 35.5 °F /  1.9 °C 30.17 in /  1021.6 hPa SW 4.0 mph /  6.4 km/h 9.2 mph /  14.8 km/h 75 % 0.00 in /  0 mm
08:15 43.3 °F /  6.3 °C 35.9 °F /  2.2 °C 30.17 in /  1021.6 hPa SSW 1.3 mph /  2.1 km/h 6.9 mph /  11.1 km/h 75 % 0.00 in /  0 mm
08:20 43.6 °F /  6.4 °C 35.9 °F /  2.2 °C 30.17 in /  1021.6 hPa SW 2.0 mph /  3.2 km/h 6.9 mph /  11.1 km/h 74 % 0.00 in /  0 mm
08:25 44.0 °F /  6.7 °C 36.2 °F /  2.3 °C 30.17 in /  1021.6 hPa SW 4.4 mph /  7.1 km/h 10.4 mph /  16.7 km/h 74 % 0.00 in /  0 mm
08:30 44.2 °F /  6.8 °C 36.4 °F /  2.4 °C 30.18 in /  1021.9 hPa SW 2.5 mph /  4 km/h 4.0 mph /  6.4 km/h 74 % 0.00 in /  0 mm
08:35 44.6 °F /  7 °C 36.8 °F /  2.7 °C 30.17 in /  1021.6 hPa SW 2.8 mph /  4.5 km/h 9.2 mph /  14.8 km/h 74 % 0.00 in /  0 mm
08:40 44.9 °F /  7.2 °C 37.1 °F /  2.8 °C 30.17 in /  1021.6 hPa WSW 2.6 mph /  4.2 km/h 7.0 mph /  11.3 km/h 74 % 0.00 in /  0 mm
08:50 46.0 °F /  7.8 °C 37.5 °F /  3.1 °C 30.17 in /  1021.6 hPa SSW 2.9 mph /  4.7 km/h 4.6 mph /  7.4 km/h 72 % 0.00 in /  0 mm
08:55 46.7 °F /  8.2 °C 38.1 °F /  3.4 °C 30.17 in /  1021.6 hPa West 1.1 mph /  1.8 km/h 3.5 mph /  5.6 km/h 72 % 0.00 in /  0 mm
09:00 47.5 °F /  8.6 °C 38.6 °F /  3.7 °C 30.17 in /  1021.6 hPa SW 0.5 mph /  0.8 km/h 2.3 mph /  3.7 km/h 71 % 0.00 in /  0 mm
09:05 48.5 °F /  9.2 °C 38.8 °F /  3.8 °C 30.17 in /  1021.6 hPa SSW 0.8 mph /  1.3 km/h 3.5 mph /  5.6 km/h 69 % 0.00 in /  0 mm
09:10 49.6 °F /  9.8 °C 39.1 °F /  3.9 °C 30.17 in /  1021.6 hPa SW 3.8 mph /  6.1 km/h 5.0 mph /  8 km/h 67 % 0.00 in /  0 mm
09:15 50.5 °F /  10.3 °C 39.6 °F /  4.2 °C 30.16 in /  1021.2 hPa SSW 1.4 mph /  2.3 km/h 3.5 mph /  5.6 km/h 66 % 0.00 in /  0 mm
09:20 51.4 °F /  10.8 °C 39.2 °F /  4 °C 30.16 in /  1021.2 hPa WSW 1.4 mph /  2.3 km/h 5.8 mph /  9.3 km/h 63 % 0.00 in /  0 mm
09:25 52.1 °F /  11.2 °C 39.5 °F /  4.2 °C 30.16 in /  1021.2 hPa East 2.7 mph /  4.3 km/h 5.8 mph /  9.3 km/h 62 % 0.00 in /  0 mm
09:40 54.2 °F /  12.3 °C 40.2 °F /  4.6 °C 30.16 in /  1021.2 hPa WSW 4.4 mph /  7.1 km/h 14.0 mph /  22.5 km/h 59 % 0.00 in /  0 mm
09:45 54.9 °F /  12.7 °C 38.1 °F /  3.4 °C 30.15 in /  1020.9 hPa SW 6.9 mph /  11.1 km/h 13.8 mph /  22.2 km/h 53 % 0.00 in /  0 mm
09:50 55.4 °F /  13 °C 39.0 °F /  3.9 °C 30.16 in /  1021.2 hPa WSW 5.0 mph /  8 km/h 15.0 mph /  24.1 km/h 54 % 0.00 in /  0 mm
09:55 55.9 °F /  13.3 °C 39.5 °F /  4.2 °C 30.16 in /  1021.2 hPa SW 2.8 mph /  4.5 km/h 6.9 mph /  11.1 km/h 54 % 0.00 in /  0 mm
10:00 56.5 °F /  13.6 °C 40.0 °F /  4.4 °C 30.16 in /  1021.2 hPa SE 2.0 mph /  3.2 km/h 3.5 mph /  5.6 km/h 54 % 0.00 in /  0 mm
10:05 57.0 °F /  13.9 °C 39.0 °F /  3.9 °C 30.16 in /  1021.2 hPa WSW 6.8 mph /  10.9 km/h 16.0 mph /  25.7 km/h 51 % 0.00 in /  0 mm
10:10 57.4 °F /  14.1 °C 37.9 °F /  3.3 °C 30.16 in /  1021.2 hPa SW 7.5 mph /  12.1 km/h 11.5 mph /  18.5 km/h 48 % 0.00 in /  0 mm
10:16 57.6 °F /  14.2 °C 39.1 °F /  3.9 °C 30.16 in /  1021.2 hPa SSW 2.0 mph /  3.2 km/h 7.0 mph /  11.3 km/h 50 % 0.00 in /  0 mm
10:21 57.8 °F /  14.3 °C 38.2 °F /  3.4 °C 30.16 in /  1021.2 hPa SW 5.0 mph /  8 km/h 9.0 mph /  14.5 km/h 48 % 0.00 in /  0 mm
10:26 57.8 °F /  14.3 °C 36.6 °F /  2.6 °C 30.16 in /  1021.2 hPa SW 10.0 mph /  16.1 km/h 20.0 mph /  32.2 km/h 45 % 0.00 in /  0 mm
10:31 57.6 °F /  14.2 °C 37.0 °F /  2.8 °C 30.15 in /  1020.9 hPa SW 2.0 mph /  3.2 km/h 9.0 mph /  14.5 km/h 46 % 0.00 in /  0 mm
10:36 57.6 °F /  14.2 °C 38.6 °F /  3.7 °C 30.15 in /  1020.9 hPa SW 3.0 mph /  4.8 km/h 7.0 mph /  11.3 km/h 49 % 0.00 in /  0 mm
10:41 57.4 °F /  14.1 °C 37.8 °F /  3.2 °C 30.15 in /  1020.9 hPa SSW 5.0 mph /  8 km/h 16.0 mph /  25.7 km/h 48 % 0.00 in /  0 mm
10:46 57.2 °F /  14 °C 37.7 °F /  3.2 °C 30.14 in /  1020.5 hPa SSW 8.0 mph /  12.9 km/h 15.0 mph /  24.1 km/h 48 % 0.00 in /  0 mm
10:56 57.0 °F /  13.9 °C 37.0 °F /  2.8 °C 30.14 in /  1020.5 hPa SSW 7.0 mph /  11.3 km/h 14.0 mph /  22.5 km/h 47 % 0.00 in /  0 mm
11:01 56.9 °F /  13.8 °C 36.9 °F /  2.7 °C 30.13 in /  1020.2 hPa SSW 6.6 mph /  10.6 km/h 11.5 mph /  18.5 km/h 47 % 0.00 in /  0 mm
11:06 56.8 °F /  13.8 °C 36.8 °F /  2.7 °C 30.13 in /  1020.2 hPa SSW 3.6 mph /  5.8 km/h 6.9 mph /  11.1 km/h 47 % 0.00 in /  0 mm
11:11 56.8 °F /  13.8 °C 37.3 °F /  2.9 °C 29.89 in /  1012.1 hPa SSW 7.0 mph /  11.3 km/h 10.0 mph /  16.1 km/h 48 % 0.00 in /  0 mm
11:26 56.5 °F /  13.6 °C 37.1 °F /  2.8 °C 30.12 in /  1019.9 hPa SSW 5.0 mph /  8 km/h 10.0 mph /  16.1 km/h 48 % 0.00 in /  0 mm
11:31 56.6 °F /  13.7 °C 38.7 °F /  3.7 °C 30.12 in /  1019.9 hPa SSW 2.0 mph /  3.2 km/h 12.0 mph /  19.3 km/h 51 % 0.00 in /  0 mm
11:41 56.6 °F /  13.7 °C 38.7 °F /  3.7 °C 30.12 in /  1019.9 hPa SSW 3.0 mph /  4.8 km/h 12.0 mph /  19.3 km/h 51 % 0.00 in /  0 mm
11:46 56.6 °F /  13.7 °C 39.2 °F /  4 °C 30.12 in /  1019.9 hPa SSW 6.0 mph /  9.7 km/h 12.0 mph /  19.3 km/h 52 % 0.00 in /  0 mm
11:51 56.4 °F /  13.6 °C 38.5 °F /  3.6 °C 30.11 in /  1019.5 hPa SSW 3.1 mph /  5 km/h 10.4 mph /  16.7 km/h 51 % 0.00 in /  0 mm
11:56 56.5 °F /  13.6 °C 38.6 °F /  3.7 °C 30.11 in /  1019.5 hPa SSW 5.0 mph /  8 km/h 16.0 mph /  25.7 km/h 51 % 0.00 in /  0 mm
12:11 56.7 °F /  13.7 °C 38.8 °F /  3.8 °C 30.10 in /  1019.2 hPa SW 5.4 mph /  8.7 km/h 12.7 mph /  20.4 km/h 51 % 0.00 in /  0 mm
12:16 56.7 °F /  13.7 °C 39.3 °F /  4.1 °C 30.10 in /  1019.2 hPa SSW 9.1 mph /  14.6 km/h 12.7 mph /  20.4 km/h 52 % 0.00 in /  0 mm
12:36 56.9 °F /  13.8 °C 40.4 °F /  4.7 °C 30.09 in /  1018.8 hPa South 8.0 mph /  12.9 km/h 18.4 mph /  29.6 km/h 54 % 0.00 in /  0 mm
12:41 56.9 °F /  13.8 °C 39.4 °F /  4.1 °C 29.84 in /  1010.4 hPa SSW 3.7 mph /  6 km/h 13.8 mph /  22.2 km/h 52 % 0.00 in /  0 mm
12:47 56.8 °F /  13.8 °C 40.3 °F /  4.6 °C 30.08 in /  1018.5 hPa SSW 4.0 mph /  6.4 km/h 11.5 mph /  18.5 km/h 54 % 0.00 in /  0 mm
12:57 56.7 °F /  13.7 °C 39.7 °F /  4.3 °C 30.08 in /  1018.5 hPa SSW 2.4 mph /  3.9 km/h 6.9 mph /  11.1 km/h 53 % 0.00 in /  0 mm
13:02 56.7 °F /  13.7 °C 40.2 °F /  4.6 °C 30.07 in /  1018.2 hPa SSW 7.7 mph /  12.4 km/h 12.7 mph /  20.4 km/h 54 % 0.00 in /  0 mm
13:07 56.7 °F /  13.7 °C 39.7 °F /  4.3 °C 30.07 in /  1018.2 hPa SSW 6.3 mph /  10.1 km/h 12.0 mph /  19.3 km/h 53 % 0.00 in /  0 mm
13:12 56.7 °F /  13.7 °C 39.7 °F /  4.3 °C 30.07 in /  1018.2 hPa SSW 4.4 mph /  7.1 km/h 10.4 mph /  16.7 km/h 53 % 0.00 in /  0 mm
13:17 56.8 °F /  13.8 °C 40.3 °F /  4.6 °C 30.07 in /  1018.2 hPa WSW 3.1 mph /  5 km/h 12.0 mph /  19.3 km/h 54 % 0.00 in /  0 mm
13:32 57.4 °F /  14.1 °C 40.4 °F /  4.7 °C 30.07 in /  1018.2 hPa SSW 8.2 mph /  13.2 km/h 12.0 mph /  19.3 km/h 53 % 0.00 in /  0 mm
13:37 57.6 °F /  14.2 °C 41.1 °F /  5.1 °C 30.07 in /  1018.2 hPa SW 2.8 mph /  4.5 km/h 5.0 mph /  8 km/h 54 % 0.00 in /  0 mm
13:52 58.1 °F /  14.5 °C 42.5 °F /  5.8 °C 30.07 in /  1018.2 hPa SSW 4.8 mph /  7.7 km/h 10.0 mph /  16.1 km/h 56 % 0.00 in /  0 mm
13:57 58.2 °F /  14.6 °C 42.6 °F /  5.9 °C 30.07 in /  1018.2 hPa SSW 7.8 mph /  12.6 km/h 11.5 mph /  18.5 km/h 56 % 0.00 in /  0 mm
14:07 58.4 °F /  14.7 °C 42.8 °F /  6 °C 30.06 in /  1017.8 hPa WSW 2.6 mph /  4.2 km/h 5.8 mph /  9.3 km/h 56 % 0.00 in /  0 mm
14:17 58.0 °F /  14.4 °C 41.9 °F /  5.5 °C 30.06 in /  1017.8 hPa South 2.8 mph /  4.5 km/h 5.8 mph /  9.3 km/h 55 % 0.00 in /  0 mm
14:22 57.8 °F /  14.3 °C 42.7 °F /  5.9 °C 30.06 in /  1017.8 hPa WSW 2.7 mph /  4.3 km/h 4.6 mph /  7.4 km/h 57 % 0.00 in /  0 mm
14:27 57.6 °F /  14.2 °C 42.5 °F /  5.8 °C 30.06 in /  1017.8 hPa South 5.7 mph /  9.2 km/h 9.2 mph /  14.8 km/h 57 % 0.00 in /  0 mm
14:32 57.4 °F /  14.1 °C 42.3 °F /  5.7 °C 30.06 in /  1017.8 hPa SW 3.9 mph /  6.3 km/h 11.0 mph /  17.7 km/h 57 % 0.00 in /  0 mm
14:42 56.8 °F /  13.8 °C 41.3 °F /  5.2 °C 30.06 in /  1017.8 hPa SW 6.7 mph /  10.8 km/h 10.4 mph /  16.7 km/h 56 % 0.00 in /  0 mm
14:47 56.7 °F /  13.7 °C 41.2 °F /  5.1 °C 30.06 in /  1017.8 hPa South 7.2 mph /  11.6 km/h 17.3 mph /  27.8 km/h 56 % 0.00 in /  0 mm
15:02 56.2 °F /  13.4 °C 41.2 °F /  5.1 °C 30.06 in /  1017.8 hPa SSW 6.2 mph /  10 km/h 10.4 mph /  16.7 km/h 57 % 0.00 in /  0 mm
15:08 56.0 °F /  13.3 °C 41.4 °F /  5.2 °C 30.07 in /  1018.2 hPa SW 6.2 mph /  10 km/h 8.1 mph /  13 km/h 58 % 0.00 in /  0 mm
15:13 55.9 °F /  13.3 °C 41.3 °F /  5.2 °C 30.06 in /  1017.8 hPa SW 2.7 mph /  4.3 km/h 6.9 mph /  11.1 km/h 58 % 0.00 in /  0 mm
15:18 55.7 °F /  13.2 °C 41.6 °F /  5.3 °C 30.06 in /  1017.8 hPa South 4.9 mph /  7.9 km/h 11.5 mph /  18.5 km/h 59 % 0.00 in /  0 mm
15:23 55.5 °F /  13.1 °C 41.8 °F /  5.4 °C 29.82 in /  1009.7 hPa SSW 6.7 mph /  10.8 km/h 11.5 mph /  18.5 km/h 60 % 0.00 in /  0 mm
15:43 54.9 °F /  12.7 °C 41.7 °F /  5.4 °C 30.05 in /  1017.5 hPa SSW 3.3 mph /  5.3 km/h 7.0 mph /  11.3 km/h 61 % 0.00 in /  0 mm
15:48 54.7 °F /  12.6 °C 41.9 °F /  5.5 °C 30.04 in /  1017.2 hPa South 2.4 mph /  3.9 km/h 4.6 mph /  7.4 km/h 62 % 0.00 in /  0 mm
15:53 54.5 °F /  12.5 °C 41.7 °F /  5.4 °C 30.04 in /  1017.2 hPa SSE 1.7 mph /  2.7 km/h 8.1 mph /  13 km/h 62 % 0.00 in /  0 mm
15:58 54.4 °F /  12.4 °C 42.1 °F /  5.6 °C 30.03 in /  1016.8 hPa SSW 3.1 mph /  5 km/h 5.8 mph /  9.3 km/h 63 % 0.00 in /  0 mm
16:03 54.2 °F /  12.3 °C 41.9 °F /  5.5 °C 30.05 in /  1017.5 hPa SSW 1.7 mph /  2.7 km/h 3.5 mph /  5.6 km/h 63 % 0.00 in /  0 mm
16:08 54.0 °F /  12.2 °C 42.1 °F /  5.6 °C 30.05 in /  1017.5 hPa SSW 3.8 mph /  6.1 km/h 9.2 mph /  14.8 km/h 64 % 0.00 in /  0 mm
16:13 53.8 °F /  12.1 °C 42.3 °F /  5.7 °C 30.05 in /  1017.5 hPa SW 0.8 mph /  1.3 km/h 3.0 mph /  4.8 km/h 65 % 0.00 in /  0 mm
16:20 53.5 °F /  11.9 °C 42.4 °F /  5.8 °C 30.05 in /  1017.5 hPa South 4.1 mph /  6.6 km/h 6.9 mph /  11.1 km/h 66 % 0.00 in /  0 mm
16:25 53.2 °F /  11.8 °C 42.5 °F /  5.8 °C 30.05 in /  1017.5 hPa SW 2.8 mph /  4.5 km/h 6.0 mph /  9.7 km/h 67 % 0.00 in /  0 mm
16:30 53.0 °F /  11.7 °C 42.7 °F /  5.9 °C 30.06 in /  1017.8 hPa SSW 1.4 mph /  2.3 km/h 3.5 mph /  5.6 km/h 68 % 0.00 in /  0 mm
16:40 52.8 °F /  11.6 °C 42.9 °F /  6.1 °C 30.06 in /  1017.8 hPa SSW 5.6 mph /  9 km/h 6.9 mph /  11.1 km/h 69 % 0.00 in /  0 mm
16:45 52.6 °F /  11.4 °C 43.1 °F /  6.2 °C 30.06 in /  1017.8 hPa WSW 2.3 mph /  3.7 km/h 5.0 mph /  8 km/h 70 % 0.00 in /  0 mm
16:50 52.5 °F /  11.4 °C 43.0 °F /  6.1 °C 30.06 in /  1017.8 hPa SSW 2.9 mph /  4.7 km/h 5.8 mph /  9.3 km/h 70 % 0.00 in /  0 mm
17:05 52.2 °F /  11.2 °C 43.1 °F /  6.2 °C 30.06 in /  1017.8 hPa SSW 2.5 mph /  4 km/h 4.0 mph /  6.4 km/h 71 % 0.00 in /  0 mm
17:15 52.0 °F /  11.1 °C 42.9 °F /  6.1 °C 30.06 in /  1017.8 hPa SW 2.1 mph /  3.4 km/h 3.5 mph /  5.6 km/h 71 % 0.00 in /  0 mm
17:20 51.9 °F /  11.1 °C 43.2 °F /  6.2 °C 30.06 in /  1017.8 hPa SW 1.5 mph /  2.4 km/h 3.5 mph /  5.6 km/h 72 % 0.00 in /  0 mm
17:25 51.8 °F /  11 °C 43.1 °F /  6.2 °C 30.06 in /  1017.8 hPa South 1.4 mph /  2.3 km/h 6.9 mph /  11.1 km/h 72 % 0.00 in /  0 mm
17:30 51.7 °F /  10.9 °C 43.0 °F /  6.1 °C 30.06 in /  1017.8 hPa SSW 1.0 mph /  1.6 km/h 2.3 mph /  3.7 km/h 72 % 0.00 in /  0 mm
17:35 51.6 °F /  10.9 °C 42.9 °F /  6.1 °C 30.06 in /  1017.8 hPa SSW 1.4 mph /  2.3 km/h 3.5 mph /  5.6 km/h 72 % 0.00 in /  0 mm
17:45 51.4 °F /  10.8 °C 42.7 °F /  5.9 °C 30.07 in /  1018.2 hPa South 3.7 mph /  6 km/h 3.7 mph /  6 km/h 72 % 0.00 in /  0 mm
17:55 51.3 °F /  10.7 °C 42.9 °F /  6.1 °C 30.06 in /  1017.8 hPa SSW 2.7 mph /  4.3 km/h 6.9 mph /  11.1 km/h 73 % 0.00 in /  0 mm
18:00 51.3 °F /  10.7 °C 42.9 °F /  6.1 °C 30.06 in /  1017.8 hPa SW 1.9 mph /  3.1 km/h 6.9 mph /  11.1 km/h 73 % 0.00 in /  0 mm
18:05 51.3 °F /  10.7 °C 43.3 °F /  6.3 °C 30.06 in /  1017.8 hPa SSW 2.6 mph /  4.2 km/h 3.5 mph /  5.6 km/h 74 % 0.00 in /  0 mm
18:15 51.3 °F /  10.7 °C 43.6 °F /  6.4 °C 30.07 in /  1018.2 hPa SSW 4.1 mph /  6.6 km/h 4.6 mph /  7.4 km/h 75 % 0.00 in /  0 mm
18:20 51.3 °F /  10.7 °C 43.6 °F /  6.4 °C 30.07 in /  1018.2 hPa South 2.0 mph /  3.2 km/h 3.5 mph /  5.6 km/h 75 % 0.00 in /  0 mm
18:31 51.4 °F /  10.8 °C 43.7 °F /  6.5 °C 30.06 in /  1017.8 hPa SSW 5.0 mph /  8 km/h 7.0 mph /  11.3 km/h 75 % 0.00 in /  0 mm
18:36 51.5 °F /  10.8 °C 43.8 °F /  6.6 °C 30.06 in /  1017.8 hPa SSW 3.0 mph /  4.8 km/h 9.0 mph /  14.5 km/h 75 % 0.00 in /  0 mm
18:41 51.5 °F /  10.8 °C 43.8 °F /  6.6 °C 30.07 in /  1018.2 hPa SSW 2.0 mph /  3.2 km/h 6.0 mph /  9.7 km/h 75 % 0.00 in /  0 mm
18:46 51.6 °F /  10.9 °C 43.9 °F /  6.6 °C 30.07 in /  1018.2 hPa SSW 3.1 mph /  5 km/h 8.1 mph /  13 km/h 75 % 0.00 in /  0 mm
18:51 51.7 °F /  10.9 °C 44.0 °F /  6.7 °C 30.07 in /  1018.2 hPa SSW 2.0 mph /  3.2 km/h 7.0 mph /  11.3 km/h 75 % 0.00 in /  0 mm
18:56 51.7 °F /  10.9 °C 44.4 °F /  6.9 °C 30.08 in /  1018.5 hPa SSW 3.0 mph /  4.8 km/h 9.0 mph /  14.5 km/h 76 % 0.00 in /  0 mm
18:58 51.7 °F /  10.9 °C 44.4 °F /  6.9 °C 30.08 in /  1018.5 hPa SW 3.5 mph /  5.6 km/h 4.6 mph /  7.4 km/h 76 % 0.00 in /  0 mm
19:03 51.8 °F /  11 °C 44.5 °F /  6.9 °C 30.08 in /  1018.5 hPa SSW 3.9 mph /  6.3 km/h 5.8 mph /  9.3 km/h 76 % 0.00 in /  0 mm
19:13 51.9 °F /  11.1 °C 44.6 °F /  7 °C 30.07 in /  1018.2 hPa SSW 3.7 mph /  6 km/h 5.8 mph /  9.3 km/h 76 % 0.00 in /  0 mm
19:18 51.9 °F /  11.1 °C 44.6 °F /  7 °C 30.07 in /  1018.2 hPa SSW 3.4 mph /  5.5 km/h 8.0 mph /  12.9 km/h 76 % 0.00 in /  0 mm
19:23 52.0 °F /  11.1 °C 44.7 °F /  7.1 °C 30.07 in /  1018.2 hPa SW 4.3 mph /  6.9 km/h 6.9 mph /  11.1 km/h 76 % 0.00 in /  0 mm
19:28 52.1 °F /  11.2 °C 44.8 °F /  7.1 °C 30.07 in /  1018.2 hPa SSW 3.8 mph /  6.1 km/h 8.0 mph /  12.9 km/h 76 % 0.00 in /  0 mm
19:48 52.2 °F /  11.2 °C 43.8 °F /  6.6 °C 30.08 in /  1018.5 hPa WSW 2.4 mph /  3.9 km/h 6.9 mph /  11.1 km/h 73 % 0.00 in /  0 mm
19:58 52.2 °F /  11.2 °C 43.8 °F /  6.6 °C 30.08 in /  1018.5 hPa SSW 2.9 mph /  4.7 km/h 4.6 mph /  7.4 km/h 73 % 0.00 in /  0 mm
20:03 52.2 °F /  11.2 °C 43.8 °F /  6.6 °C 30.08 in /  1018.5 hPa South 2.4 mph /  3.9 km/h 3.5 mph /  5.6 km/h 73 % 0.00 in /  0 mm
20:08 52.2 °F /  11.2 °C 43.4 °F /  6.3 °C 30.07 in /  1018.2 hPa SW 4.7 mph /  7.6 km/h 6.0 mph /  9.7 km/h 72 % 0.00 in /  0 mm
20:13 52.2 °F /  11.2 °C 43.4 °F /  6.3 °C 30.07 in /  1018.2 hPa SSW 4.0 mph /  6.4 km/h 8.1 mph /  13 km/h 72 % 0.00 in /  0 mm
20:18 52.2 °F /  11.2 °C 43.4 °F /  6.3 °C 29.83 in /  1010 hPa SW 3.4 mph /  5.5 km/h 7.0 mph /  11.3 km/h 72 % 0.00 in /  0 mm
20:38 52.0 °F /  11.1 °C 43.6 °F /  6.4 °C 30.07 in /  1018.2 hPa SW 1.8 mph /  2.9 km/h 4.6 mph /  7.4 km/h 73 % 0.00 in /  0 mm
20:43 51.9 °F /  11.1 °C 43.5 °F /  6.4 °C 30.07 in /  1018.2 hPa South 3.5 mph /  5.6 km/h 7.0 mph /  11.3 km/h 73 % 0.00 in /  0 mm
20:48 51.8 °F /  11 °C 43.8 °F /  6.6 °C 30.07 in /  1018.2 hPa WSW 2.0 mph /  3.2 km/h 8.1 mph /  13 km/h 74 % 0.00 in /  0 mm
20:53 51.7 °F /  10.9 °C 43.7 °F /  6.5 °C 30.07 in /  1018.2 hPa SW 2.3 mph /  3.7 km/h 8.1 mph /  13 km/h 74 % 0.00 in /  0 mm
20:59 51.7 °F /  10.9 °C 44.0 °F /  6.7 °C 30.07 in /  1018.2 hPa SSW 3.6 mph /  5.8 km/h 6.9 mph /  11.1 km/h 75 % 0.00 in /  0 mm
21:04 51.6 °F /  10.9 °C 43.9 °F /  6.6 °C 30.07 in /  1018.2 hPa SSW 3.5 mph /  5.6 km/h 9.2 mph /  14.8 km/h 75 % 0.00 in /  0 mm
21:08 51.6 °F /  10.9 °C 44.3 °F /  6.8 °C 30.07 in /  1018.2 hPa SSW 3.9 mph /  6.3 km/h 6.9 mph /  11.1 km/h 76 % 0.00 in /  0 mm
21:13 51.6 °F /  10.9 °C 44.3 °F /  6.8 °C 30.07 in /  1018.2 hPa SSW 2.6 mph /  4.2 km/h 6.9 mph /  11.1 km/h 76 % 0.00 in /  0 mm
21:24 51.6 °F /  10.9 °C 44.3 °F /  6.8 °C 30.07 in /  1018.2 hPa South 2.9 mph /  4.7 km/h 5.8 mph /  9.3 km/h 76 % 0.00 in /  0 mm
21:34 51.6 °F /  10.9 °C 44.3 °F /  6.8 °C 30.07 in /  1018.2 hPa SSW 3.0 mph /  4.8 km/h 5.8 mph /  9.3 km/h 76 % 0.00 in /  0 mm
21:39 51.7 °F /  10.9 °C 44.4 °F /  6.9 °C 30.07 in /  1018.2 hPa SW 2.7 mph /  4.3 km/h 5.8 mph /  9.3 km/h 76 % 0.00 in /  0 mm
21:44 51.6 °F /  10.9 °C 44.3 °F /  6.8 °C 30.07 in /  1018.2 hPa SSW 3.3 mph /  5.3 km/h 5.0 mph /  8 km/h 76 % 0.00 in /  0 mm
21:49 51.6 °F /  10.9 °C 44.3 °F /  6.8 °C 30.07 in /  1018.2 hPa WSW 1.1 mph /  1.8 km/h 4.6 mph /  7.4 km/h 76 % 0.00 in /  0 mm
21:55 51.6 °F /  10.9 °C 44.3 °F /  6.8 °C 30.07 in /  1018.2 hPa SW 5.0 mph /  8 km/h 8.1 mph /  13 km/h 76 % 0.00 in /  0 mm
22:00 51.6 °F /  10.9 °C 44.3 °F /  6.8 °C 30.07 in /  1018.2 hPa SW 2.6 mph /  4.2 km/h 8.1 mph /  13 km/h 76 % 0.00 in /  0 mm
22:10 51.7 °F /  10.9 °C 44.4 °F /  6.9 °C 30.06 in /  1017.8 hPa SW 2.7 mph /  4.3 km/h 4.6 mph /  7.4 km/h 76 % 0.00 in /  0 mm
22:15 51.7 °F /  10.9 °C 44.4 °F /  6.9 °C 30.06 in /  1017.8 hPa SW 4.2 mph /  6.8 km/h 5.8 mph /  9.3 km/h 76 % 0.00 in /  0 mm
22:20 51.7 °F /  10.9 °C 44.4 °F /  6.9 °C 30.06 in /  1017.8 hPa South 2.5 mph /  4 km/h 6.9 mph /  11.1 km/h 76 % 0.00 in /  0 mm
22:25 51.8 °F /  11 °C 44.5 °F /  6.9 °C 29.82 in /  1009.7 hPa SSW 3.4 mph /  5.5 km/h 8.1 mph /  13 km/h 76 % 0.00 in /  0 mm
22:30 52.0 °F /  11.1 °C 44.7 °F /  7.1 °C 30.06 in /  1017.8 hPa SSW 4.6 mph /  7.4 km/h 6.9 mph /  11.1 km/h 76 % 0.00 in /  0 mm
22:40 52.2 °F /  11.2 °C 44.9 °F /  7.2 °C 30.06 in /  1017.8 hPa SSW 6.8 mph /  10.9 km/h 11.5 mph /  18.5 km/h 76 % 0.00 in /  0 mm
22:55 52.5 °F /  11.4 °C 44.8 °F /  7.1 °C 30.06 in /  1017.8 hPa WSW 3.5 mph /  5.6 km/h 6.9 mph /  11.1 km/h 75 % 0.00 in /  0 mm
23:01 52.6 °F /  11.4 °C 44.9 °F /  7.2 °C 30.05 in /  1017.5 hPa SSW 5.5 mph /  8.9 km/h 10.4 mph /  16.7 km/h 75 % 0.00 in /  0 mm
23:06 52.7 °F /  11.5 °C 45.0 °F /  7.2 °C 29.82 in /  1009.7 hPa SSW 2.4 mph /  3.9 km/h 5.0 mph /  8 km/h 75 % 0.00 in /  0 mm
23:11 52.7 °F /  11.5 °C 45.0 °F /  7.2 °C 30.05 in /  1017.5 hPa SSW 2.0 mph /  3.2 km/h 6.0 mph /  9.7 km/h 75 % 0.00 in /  0 mm
23:21 52.7 °F /  11.5 °C 45.0 °F /  7.2 °C 30.05 in /  1017.5 hPa SSW 2.0 mph /  3.2 km/h 4.6 mph /  7.4 km/h 75 % 0.00 in /  0 mm
23:26 52.8 °F /  11.6 °C 45.0 °F /  7.2 °C 30.05 in /  1017.5 hPa SSW 2.0 mph /  3.2 km/h 8.0 mph /  12.9 km/h 75 % 0.00 in /  0 mm
23:31 52.7 °F /  11.5 °C 45.0 °F /  7.2 °C 29.81 in /  1009.4 hPa SW 1.9 mph /  3.1 km/h 6.9 mph /  11.1 km/h 75 % 0.00 in /  0 mm
23:40 52.8 °F /  11.6 °C 45.1 °F /  7.3 °C 30.05 in /  1017.5 hPa SSW 2.5 mph /  4 km/h 8.1 mph /  13 km/h 75 % 0.00 in /  0 mm
23:45 52.8 °F /  11.6 °C 45.1 °F /  7.3 °C 30.05 in /  1017.5 hPa WSW 3.8 mph /  6.1 km/h 6.9 mph /  11.1 km/h 75 % 0.00 in /  0 mm
23:50 52.9 °F /  11.6 °C 45.2 °F /  7.3 °C 30.05 in /  1017.5 hPa SW 3.5 mph /  5.6 km/h 3.5 mph /  5.6 km/h 75 % 0.00 in /  0 mm
23:56 53.0 °F /  11.7 °C 45.2 °F /  7.3 °C 30.05 in /  1017.5 hPa SSW 2.0 mph /  3.2 km/h 8.0 mph /  12.9 km/h 75 % 0.00 in /  0 mm
Crab Meadow Weather
Compliments of Weather Underground - 2.5 mb

Script developed by  Jim McMurry - jmcmurry@mwt.net Adapted for the template by  Wim van der Kuil - Leuven-Template.eu

Lightning: Lightning's return stroke is hotter than the surface of the sun. Lightning is 50,000 degrees F. The sun is about 11,000 degrees F.